sensor_id;sensor_type;location;lat;lon;timestamp;P1;durP1;ratioP1;P2;durP2;ratioP2
45254;SDS011;30989;52.078;21.014;2024-02-28T00:00:03;63.40;;;25.75;;
45254;SDS011;30989;52.078;21.014;2024-02-28T00:02:30;55.83;;;23.45;;
45254;SDS011;30989;52.078;21.014;2024-02-28T00:04:56;66.55;;;26.67;;
45254;SDS011;30989;52.078;21.014;2024-02-28T00:07:24;64.15;;;27.02;;
45254;SDS011;30989;52.078;21.014;2024-02-28T00:09:49;73.25;;;29.65;;
45254;SDS011;30989;52.078;21.014;2024-02-28T00:12:15;76.93;;;30.08;;
45254;SDS011;30989;52.078;21.014;2024-02-28T00:14:40;61.75;;;24.88;;
45254;SDS011;30989;52.078;21.014;2024-02-28T00:17:06;57.90;;;25.02;;
45254;SDS011;30989;52.078;21.014;2024-02-28T00:19:31;64.93;;;27.65;;
45254;SDS011;30989;52.078;21.014;2024-02-28T00:21:57;61.15;;;24.65;;
45254;SDS011;30989;52.078;21.014;2024-02-28T00:24:25;54.95;;;23.27;;
45254;SDS011;30989;52.078;21.014;2024-02-28T00:26:50;54.30;;;24.83;;
45254;SDS011;30989;52.078;21.014;2024-02-28T00:29:16;56.30;;;24.90;;
45254;SDS011;30989;52.078;21.014;2024-02-28T00:31:41;57.83;;;24.48;;
45254;SDS011;30989;52.078;21.014;2024-02-28T00:34:06;54.85;;;26.17;;
45254;SDS011;30989;52.078;21.014;2024-02-28T00:36:34;61.45;;;23.67;;
45254;SDS011;30989;52.078;21.014;2024-02-28T00:38:59;54.35;;;24.63;;
45254;SDS011;30989;52.078;21.014;2024-02-28T00:41:25;50.83;;;23.70;;
45254;SDS011;30989;52.078;21.014;2024-02-28T00:43:50;56.63;;;24.20;;
45254;SDS011;30989;52.078;21.014;2024-02-28T00:46:16;55.85;;;24.20;;
45254;SDS011;30989;52.078;21.014;2024-02-28T00:48:41;46.92;;;22.10;;
45254;SDS011;30989;52.078;21.014;2024-02-28T00:51:07;54.80;;;22.73;;
45254;SDS011;30989;52.078;21.014;2024-02-28T00:53:33;49.38;;;22.98;;
45254;SDS011;30989;52.078;21.014;2024-02-28T00:55:59;51.08;;;22.95;;
45254;SDS011;30989;52.078;21.014;2024-02-28T00:58:24;51.92;;;23.33;;
45254;SDS011;30989;52.078;21.014;2024-02-28T01:00:53;47.50;;;21.48;;
45254;SDS011;30989;52.078;21.014;2024-02-28T01:03:18;48.25;;;22.52;;
45254;SDS011;30989;52.078;21.014;2024-02-28T01:05:44;50.60;;;22.35;;
45254;SDS011;30989;52.078;21.014;2024-02-28T01:08:09;49.50;;;22.23;;
45254;SDS011;30989;52.078;21.014;2024-02-28T01:10:35;49.35;;;22.05;;
45254;SDS011;30989;52.078;21.014;2024-02-28T01:13:01;51.67;;;22.23;;
45254;SDS011;30989;52.078;21.014;2024-02-28T01:15:27;49.80;;;22.38;;
45254;SDS011;30989;52.078;21.014;2024-02-28T01:17:53;46.58;;;22.23;;
45254;SDS011;30989;52.078;21.014;2024-02-28T01:20:18;52.72;;;23.45;;
45254;SDS011;30989;52.078;21.014;2024-02-28T01:22:44;48.60;;;23.90;;
45254;SDS011;30989;52.078;21.014;2024-02-28T01:25:09;56.17;;;23.58;;
45254;SDS011;30989;52.078;21.014;2024-02-28T01:27:35;48.92;;;23.98;;
45254;SDS011;30989;52.078;21.014;2024-02-28T01:30:01;52.38;;;22.45;;
45254;SDS011;30989;52.078;21.014;2024-02-28T01:32:27;53.30;;;25.08;;
45254;SDS011;30989;52.078;21.014;2024-02-28T01:34:54;50.22;;;23.75;;
45254;SDS011;30989;52.078;21.014;2024-02-28T01:37:20;57.08;;;25.85;;
45254;SDS011;30989;52.078;21.014;2024-02-28T01:39:45;53.88;;;24.48;;
45254;SDS011;30989;52.078;21.014;2024-02-28T01:42:10;49.70;;;24.17;;
45254;SDS011;30989;52.078;21.014;2024-02-28T01:44:39;52.75;;;24.05;;
45254;SDS011;30989;52.078;21.014;2024-02-28T01:47:09;60.92;;;25.95;;
45254;SDS011;30989;52.078;21.014;2024-02-28T01:49:35;61.83;;;27.98;;
45254;SDS011;30989;52.078;21.014;2024-02-28T01:52:00;55.42;;;26.48;;
45254;SDS011;30989;52.078;21.014;2024-02-28T01:54:27;54.17;;;25.90;;
45254;SDS011;30989;52.078;21.014;2024-02-28T01:56:55;55.88;;;25.40;;
45254;SDS011;30989;52.078;21.014;2024-02-28T01:59:21;62.85;;;27.25;;
45254;SDS011;30989;52.078;21.014;2024-02-28T02:01:50;60.97;;;26.95;;
45254;SDS011;30989;52.078;21.014;2024-02-28T02:04:15;56.78;;;27.25;;
45254;SDS011;30989;52.078;21.014;2024-02-28T02:06:42;48.05;;;24.23;;
45254;SDS011;30989;52.078;21.014;2024-02-28T02:09:09;56.88;;;27.83;;
45254;SDS011;30989;52.078;21.014;2024-02-28T02:11:35;50.22;;;24.30;;
45254;SDS011;30989;52.078;21.014;2024-02-28T02:14:01;54.10;;;24.35;;
45254;SDS011;30989;52.078;21.014;2024-02-28T02:16:26;55.60;;;24.92;;
45254;SDS011;30989;52.078;21.014;2024-02-28T02:18:52;45.35;;;22.17;;
45254;SDS011;30989;52.078;21.014;2024-02-28T02:21:18;44.20;;;22.70;;
45254;SDS011;30989;52.078;21.014;2024-02-28T02:23:46;50.67;;;24.10;;
45254;SDS011;30989;52.078;21.014;2024-02-28T02:26:11;49.10;;;23.73;;
45254;SDS011;30989;52.078;21.014;2024-02-28T02:28:37;48.65;;;22.90;;
45254;SDS011;30989;52.078;21.014;2024-02-28T02:31:02;49.10;;;21.90;;
45254;SDS011;30989;52.078;21.014;2024-02-28T02:33:28;52.78;;;22.23;;
45254;SDS011;30989;52.078;21.014;2024-02-28T02:35:53;49.05;;;24.30;;
45254;SDS011;30989;52.078;21.014;2024-02-28T02:38:19;45.38;;;22.55;;
45254;SDS011;30989;52.078;21.014;2024-02-28T02:40:48;55.80;;;23.23;;
45254;SDS011;30989;52.078;21.014;2024-02-28T02:43:14;52.70;;;24.85;;
45254;SDS011;30989;52.078;21.014;2024-02-28T02:45:40;51.55;;;23.98;;
45254;SDS011;30989;52.078;21.014;2024-02-28T02:48:05;51.17;;;23.25;;
45254;SDS011;30989;52.078;21.014;2024-02-28T02:50:31;50.63;;;24.20;;
45254;SDS011;30989;52.078;21.014;2024-02-28T02:52:56;52.47;;;23.38;;
45254;SDS011;30989;52.078;21.014;2024-02-28T02:55:22;46.08;;;23.10;;
45254;SDS011;30989;52.078;21.014;2024-02-28T02:57:47;55.15;;;26.45;;
45254;SDS011;30989;52.078;21.014;2024-02-28T03:00:13;54.95;;;24.70;;
45254;SDS011;30989;52.078;21.014;2024-02-28T03:02:39;58.28;;;27.83;;
45254;SDS011;30989;52.078;21.014;2024-02-28T03:05:05;53.55;;;26.80;;
45254;SDS011;30989;52.078;21.014;2024-02-28T03:07:31;52.95;;;24.92;;
45254;SDS011;30989;52.078;21.014;2024-02-28T03:09:57;56.25;;;24.70;;
45254;SDS011;30989;52.078;21.014;2024-02-28T03:12:23;49.92;;;23.70;;
45254;SDS011;30989;52.078;21.014;2024-02-28T03:14:48;55.50;;;26.10;;
45254;SDS011;30989;52.078;21.014;2024-02-28T03:17:14;52.95;;;25.02;;
45254;SDS011;30989;52.078;21.014;2024-02-28T03:19:42;51.05;;;25.98;;
45254;SDS011;30989;52.078;21.014;2024-02-28T03:22:08;49.72;;;25.88;;
45254;SDS011;30989;52.078;21.014;2024-02-28T03:24:33;53.25;;;26.70;;
45254;SDS011;30989;52.078;21.014;2024-02-28T03:27:02;50.78;;;25.70;;
45254;SDS011;30989;52.078;21.014;2024-02-28T03:29:28;51.80;;;24.75;;
45254;SDS011;30989;52.078;21.014;2024-02-28T03:31:53;54.00;;;25.60;;
45254;SDS011;30989;52.078;21.014;2024-02-28T03:34:19;50.95;;;24.08;;
45254;SDS011;30989;52.078;21.014;2024-02-28T03:36:44;49.85;;;25.92;;
45254;SDS011;30989;52.078;21.014;2024-02-28T03:39:11;47.90;;;24.73;;
45254;SDS011;30989;52.078;21.014;2024-02-28T03:41:36;50.63;;;24.17;;
45254;SDS011;30989;52.078;21.014;2024-02-28T03:44:02;60.10;;;26.63;;
45254;SDS011;30989;52.078;21.014;2024-02-28T03:46:27;49.90;;;25.20;;
45254;SDS011;30989;52.078;21.014;2024-02-28T03:48:53;51.20;;;25.70;;
45254;SDS011;30989;52.078;21.014;2024-02-28T03:51:18;52.53;;;27.30;;
45254;SDS011;30989;52.078;21.014;2024-02-28T03:53:44;57.53;;;26.02;;
45254;SDS011;30989;52.078;21.014;2024-02-28T03:56:09;54.95;;;24.52;;
45254;SDS011;30989;52.078;21.014;2024-02-28T03:58:36;62.25;;;30.02;;
45254;SDS011;30989;52.078;21.014;2024-02-28T04:01:02;57.08;;;28.17;;
45254;SDS011;30989;52.078;21.014;2024-02-28T04:03:27;63.65;;;31.40;;
45254;SDS011;30989;52.078;21.014;2024-02-28T04:05:53;66.05;;;29.17;;
45254;SDS011;30989;52.078;21.014;2024-02-28T04:08:18;73.70;;;33.92;;
45254;SDS011;30989;52.078;21.014;2024-02-28T04:10:44;64.20;;;29.77;;
45254;SDS011;30989;52.078;21.014;2024-02-28T04:13:09;60.40;;;28.05;;
45254;SDS011;30989;52.078;21.014;2024-02-28T04:15:34;54.47;;;26.00;;
45254;SDS011;30989;52.078;21.014;2024-02-28T04:18:00;59.85;;;27.35;;
45254;SDS011;30989;52.078;21.014;2024-02-28T04:20:26;60.90;;;28.33;;
45254;SDS011;30989;52.078;21.014;2024-02-28T04:22:51;48.60;;;25.75;;
45254;SDS011;30989;52.078;21.014;2024-02-28T04:25:17;55.58;;;25.98;;
45254;SDS011;30989;52.078;21.014;2024-02-28T04:27:43;73.82;;;32.25;;
45254;SDS011;30989;52.078;21.014;2024-02-28T04:30:09;51.85;;;26.35;;
45254;SDS011;30989;52.078;21.014;2024-02-28T04:32:35;50.92;;;26.70;;
45254;SDS011;30989;52.078;21.014;2024-02-28T04:35:01;51.58;;;26.92;;
45254;SDS011;30989;52.078;21.014;2024-02-28T04:37:28;53.17;;;25.77;;
45254;SDS011;30989;52.078;21.014;2024-02-28T04:39:53;54.25;;;25.45;;
45254;SDS011;30989;52.078;21.014;2024-02-28T04:42:19;49.78;;;25.55;;
45254;SDS011;30989;52.078;21.014;2024-02-28T04:44:44;49.92;;;25.77;;
45254;SDS011;30989;52.078;21.014;2024-02-28T04:47:10;58.53;;;24.25;;
45254;SDS011;30989;52.078;21.014;2024-02-28T04:49:38;52.25;;;27.02;;
45254;SDS011;30989;52.078;21.014;2024-02-28T04:52:04;76.93;;;35.22;;
45254;SDS011;30989;52.078;21.014;2024-02-28T04:54:30;60.05;;;28.33;;
45254;SDS011;30989;52.078;21.014;2024-02-28T04:56:56;59.50;;;27.75;;
45254;SDS011;30989;52.078;21.014;2024-02-28T04:59:21;58.40;;;27.95;;
45254;SDS011;30989;52.078;21.014;2024-02-28T05:01:47;59.17;;;28.17;;
45254;SDS011;30989;52.078;21.014;2024-02-28T05:04:13;57.03;;;27.02;;
45254;SDS011;30989;52.078;21.014;2024-02-28T05:06:39;57.33;;;28.63;;
45254;SDS011;30989;52.078;21.014;2024-02-28T05:09:04;53.63;;;25.98;;
45254;SDS011;30989;52.078;21.014;2024-02-28T05:11:30;57.60;;;27.20;;
45254;SDS011;30989;52.078;21.014;2024-02-28T05:13:56;56.10;;;27.92;;
45254;SDS011;30989;52.078;21.014;2024-02-28T05:16:21;52.63;;;26.02;;
45254;SDS011;30989;52.078;21.014;2024-02-28T05:18:47;53.42;;;25.45;;
45254;SDS011;30989;52.078;21.014;2024-02-28T05:21:13;59.92;;;26.48;;
45254;SDS011;30989;52.078;21.014;2024-02-28T05:23:39;86.90;;;41.15;;
45254;SDS011;30989;52.078;21.014;2024-02-28T05:26:05;61.10;;;29.35;;
45254;SDS011;30989;52.078;21.014;2024-02-28T05:28:35;58.30;;;28.35;;
45254;SDS011;30989;52.078;21.014;2024-02-28T05:31:20;54.70;;;27.15;;
45254;SDS011;30989;52.078;21.014;2024-02-28T05:33:46;52.67;;;24.55;;
45254;SDS011;30989;52.078;21.014;2024-02-28T05:36:11;50.35;;;25.95;;
45254;SDS011;30989;52.078;21.014;2024-02-28T05:38:37;51.80;;;26.73;;
45254;SDS011;30989;52.078;21.014;2024-02-28T05:41:03;52.72;;;25.63;;
45254;SDS011;30989;52.078;21.014;2024-02-28T05:43:28;54.03;;;25.65;;
45254;SDS011;30989;52.078;21.014;2024-02-28T05:45:54;95.43;;;39.08;;
45254;SDS011;30989;52.078;21.014;2024-02-28T05:48:19;56.45;;;26.23;;
45254;SDS011;30989;52.078;21.014;2024-02-28T05:50:45;47.75;;;25.45;;
45254;SDS011;30989;52.078;21.014;2024-02-28T05:53:11;51.25;;;24.15;;
45254;SDS011;30989;52.078;21.014;2024-02-28T05:55:36;48.55;;;24.80;;
45254;SDS011;30989;52.078;21.014;2024-02-28T05:58:02;46.25;;;23.92;;
45254;SDS011;30989;52.078;21.014;2024-02-28T06:00:28;52.70;;;24.33;;
45254;SDS011;30989;52.078;21.014;2024-02-28T06:02:54;52.42;;;25.23;;
45254;SDS011;30989;52.078;21.014;2024-02-28T06:05:19;56.47;;;26.52;;
45254;SDS011;30989;52.078;21.014;2024-02-28T06:07:45;48.92;;;25.30;;
45254;SDS011;30989;52.078;21.014;2024-02-28T06:10:10;50.83;;;25.52;;
45254;SDS011;30989;52.078;21.014;2024-02-28T06:12:36;50.65;;;26.33;;
45254;SDS011;30989;52.078;21.014;2024-02-28T06:15:02;46.03;;;21.98;;
45254;SDS011;30989;52.078;21.014;2024-02-28T06:17:28;46.92;;;23.38;;
45254;SDS011;30989;52.078;21.014;2024-02-28T06:19:54;44.65;;;22.45;;
45254;SDS011;30989;52.078;21.014;2024-02-28T06:22:19;46.85;;;23.10;;
45254;SDS011;30989;52.078;21.014;2024-02-28T06:24:45;51.03;;;24.17;;
45254;SDS011;30989;52.078;21.014;2024-02-28T06:27:11;45.92;;;23.13;;
45254;SDS011;30989;52.078;21.014;2024-02-28T06:29:41;43.50;;;21.55;;
45254;SDS011;30989;52.078;21.014;2024-02-28T06:32:06;52.10;;;24.38;;
45254;SDS011;30989;52.078;21.014;2024-02-28T06:34:32;49.10;;;23.88;;
45254;SDS011;30989;52.078;21.014;2024-02-28T06:36:57;49.85;;;24.77;;
45254;SDS011;30989;52.078;21.014;2024-02-28T06:39:23;52.45;;;24.00;;
45254;SDS011;30989;52.078;21.014;2024-02-28T06:41:49;47.53;;;25.00;;
45254;SDS011;30989;52.078;21.014;2024-02-28T06:44:18;48.38;;;24.58;;
45254;SDS011;30989;52.078;21.014;2024-02-28T06:46:44;50.67;;;24.75;;
45254;SDS011;30989;52.078;21.014;2024-02-28T06:49:10;49.25;;;23.42;;
45254;SDS011;30989;52.078;21.014;2024-02-28T06:51:35;46.30;;;24.63;;
45254;SDS011;30989;52.078;21.014;2024-02-28T06:54:01;50.85;;;24.20;;
45254;SDS011;30989;52.078;21.014;2024-02-28T06:56:27;48.95;;;22.35;;
45254;SDS011;30989;52.078;21.014;2024-02-28T06:58:52;45.30;;;22.98;;
45254;SDS011;30989;52.078;21.014;2024-02-28T07:01:18;42.17;;;21.05;;
45254;SDS011;30989;52.078;21.014;2024-02-28T07:03:44;49.05;;;22.85;;
45254;SDS011;30989;52.078;21.014;2024-02-28T07:06:09;51.03;;;25.85;;
45254;SDS011;30989;52.078;21.014;2024-02-28T07:08:36;46.97;;;23.33;;
45254;SDS011;30989;52.078;21.014;2024-02-28T07:11:03;39.70;;;19.80;;
45254;SDS011;30989;52.078;21.014;2024-02-28T07:13:29;52.75;;;24.23;;
45254;SDS011;30989;52.078;21.014;2024-02-28T07:15:54;52.30;;;23.50;;
45254;SDS011;30989;52.078;21.014;2024-02-28T07:18:22;49.45;;;23.98;;
45254;SDS011;30989;52.078;21.014;2024-02-28T07:20:51;45.90;;;24.40;;
45254;SDS011;30989;52.078;21.014;2024-02-28T07:23:17;48.38;;;22.65;;
45254;SDS011;30989;52.078;21.014;2024-02-28T07:25:43;50.13;;;24.75;;
45254;SDS011;30989;52.078;21.014;2024-02-28T07:28:08;45.60;;;22.70;;
45254;SDS011;30989;52.078;21.014;2024-02-28T07:30:34;44.28;;;21.67;;
45254;SDS011;30989;52.078;21.014;2024-02-28T07:33:00;51.35;;;24.55;;
45254;SDS011;30989;52.078;21.014;2024-02-28T07:35:26;49.40;;;23.70;;
45254;SDS011;30989;52.078;21.014;2024-02-28T07:37:51;54.63;;;26.23;;
45254;SDS011;30989;52.078;21.014;2024-02-28T07:40:17;48.53;;;23.63;;
45254;SDS011;30989;52.078;21.014;2024-02-28T07:42:42;47.55;;;24.23;;
45254;SDS011;30989;52.078;21.014;2024-02-28T07:45:07;52.42;;;25.10;;
45254;SDS011;30989;52.078;21.014;2024-02-28T07:47:34;50.17;;;25.90;;
45254;SDS011;30989;52.078;21.014;2024-02-28T07:49:59;52.33;;;23.63;;
45254;SDS011;30989;52.078;21.014;2024-02-28T07:52:25;47.47;;;24.33;;
45254;SDS011;30989;52.078;21.014;2024-02-28T07:54:50;49.88;;;25.70;;
45254;SDS011;30989;52.078;21.014;2024-02-28T07:57:16;48.03;;;24.42;;
45254;SDS011;30989;52.078;21.014;2024-02-28T07:59:42;49.83;;;24.70;;
45254;SDS011;30989;52.078;21.014;2024-02-28T08:02:08;49.72;;;24.05;;
45254;SDS011;30989;52.078;21.014;2024-02-28T08:04:35;47.60;;;23.20;;
45254;SDS011;30989;52.078;21.014;2024-02-28T08:07:00;49.35;;;25.13;;
45254;SDS011;30989;52.078;21.014;2024-02-28T08:09:26;52.72;;;26.38;;
45254;SDS011;30989;52.078;21.014;2024-02-28T08:11:51;58.08;;;26.77;;
45254;SDS011;30989;52.078;21.014;2024-02-28T08:14:17;50.70;;;26.77;;
45254;SDS011;30989;52.078;21.014;2024-02-28T08:16:42;54.03;;;26.58;;
45254;SDS011;30989;52.078;21.014;2024-02-28T08:19:09;55.58;;;27.27;;
45254;SDS011;30989;52.078;21.014;2024-02-28T08:21:34;54.85;;;25.83;;
45254;SDS011;30989;52.078;21.014;2024-02-28T08:24:00;57.22;;;27.23;;
45254;SDS011;30989;52.078;21.014;2024-02-28T08:26:29;61.20;;;28.40;;
45254;SDS011;30989;52.078;21.014;2024-02-28T08:28:55;57.22;;;26.95;;
45254;SDS011;30989;52.078;21.014;2024-02-28T08:31:21;57.45;;;27.75;;
45254;SDS011;30989;52.078;21.014;2024-02-28T08:33:47;55.78;;;27.08;;
45254;SDS011;30989;52.078;21.014;2024-02-28T08:36:12;70.28;;;29.65;;
45254;SDS011;30989;52.078;21.014;2024-02-28T08:38:37;55.58;;;29.25;;
45254;SDS011;30989;52.078;21.014;2024-02-28T08:41:04;56.10;;;27.98;;
45254;SDS011;30989;52.078;21.014;2024-02-28T08:43:30;50.33;;;25.55;;
45254;SDS011;30989;52.078;21.014;2024-02-28T08:45:55;57.72;;;28.38;;
45254;SDS011;30989;52.078;21.014;2024-02-28T08:48:21;61.35;;;28.33;;
45254;SDS011;30989;52.078;21.014;2024-02-28T08:50:48;51.05;;;27.20;;
45254;SDS011;30989;52.078;21.014;2024-02-28T08:53:13;52.60;;;27.38;;
45254;SDS011;30989;52.078;21.014;2024-02-28T08:55:39;53.72;;;26.40;;
45254;SDS011;30989;52.078;21.014;2024-02-28T08:58:04;57.47;;;26.35;;
45254;SDS011;30989;52.078;21.014;2024-02-28T09:00:30;57.25;;;27.15;;
45254;SDS011;30989;52.078;21.014;2024-02-28T09:02:55;51.70;;;27.23;;
45254;SDS011;30989;52.078;21.014;2024-02-28T09:05:22;58.70;;;24.05;;
45254;SDS011;30989;52.078;21.014;2024-02-28T09:07:48;49.40;;;26.00;;
45254;SDS011;30989;52.078;21.014;2024-02-28T09:10:16;53.10;;;25.48;;
45254;SDS011;30989;52.078;21.014;2024-02-28T09:12:46;52.42;;;24.48;;
45254;SDS011;30989;52.078;21.014;2024-02-28T09:15:12;54.47;;;25.45;;
45254;SDS011;30989;52.078;21.014;2024-02-28T09:17:38;52.97;;;24.83;;
45254;SDS011;30989;52.078;21.014;2024-02-28T09:20:03;44.55;;;21.23;;
45254;SDS011;30989;52.078;21.014;2024-02-28T09:22:31;48.55;;;24.00;;
45254;SDS011;30989;52.078;21.014;2024-02-28T09:24:57;49.65;;;25.30;;
45254;SDS011;30989;52.078;21.014;2024-02-28T09:27:22;63.60;;;29.40;;
45254;SDS011;30989;52.078;21.014;2024-02-28T09:29:49;53.08;;;25.58;;
45254;SDS011;30989;52.078;21.014;2024-02-28T09:32:15;55.85;;;25.55;;
45254;SDS011;30989;52.078;21.014;2024-02-28T09:34:41;48.67;;;22.58;;
45254;SDS011;30989;52.078;21.014;2024-02-28T09:37:07;46.08;;;23.27;;
45254;SDS011;30989;52.078;21.014;2024-02-28T09:39:32;53.67;;;26.85;;
45254;SDS011;30989;52.078;21.014;2024-02-28T09:41:58;49.35;;;24.77;;
45254;SDS011;30989;52.078;21.014;2024-02-28T09:44:23;48.22;;;25.25;;
45254;SDS011;30989;52.078;21.014;2024-02-28T09:46:50;46.47;;;23.80;;
45254;SDS011;30989;52.078;21.014;2024-02-28T09:49:16;50.17;;;24.17;;
45254;SDS011;30989;52.078;21.014;2024-02-28T09:51:43;47.58;;;23.83;;
45254;SDS011;30989;52.078;21.014;2024-02-28T09:54:09;50.72;;;26.00;;
45254;SDS011;30989;52.078;21.014;2024-02-28T09:56:35;49.75;;;23.80;;
45254;SDS011;30989;52.078;21.014;2024-02-28T09:59:00;44.08;;;23.05;;
45254;SDS011;30989;52.078;21.014;2024-02-28T10:01:29;44.92;;;21.67;;
45254;SDS011;30989;52.078;21.014;2024-02-28T10:03:54;51.83;;;23.80;;
45254;SDS011;30989;52.078;21.014;2024-02-28T10:06:23;46.08;;;22.90;;
45254;SDS011;30989;52.078;21.014;2024-02-28T10:08:49;47.75;;;21.80;;
45254;SDS011;30989;52.078;21.014;2024-02-28T10:11:18;47.45;;;23.35;;
45254;SDS011;30989;52.078;21.014;2024-02-28T10:13:47;46.03;;;21.60;;
45254;SDS011;30989;52.078;21.014;2024-02-28T10:16:13;41.95;;;22.63;;
45254;SDS011;30989;52.078;21.014;2024-02-28T10:18:42;45.20;;;21.30;;
45254;SDS011;30989;52.078;21.014;2024-02-28T10:21:07;45.35;;;22.55;;
45254;SDS011;30989;52.078;21.014;2024-02-28T10:23:33;43.55;;;21.80;;
45254;SDS011;30989;52.078;21.014;2024-02-28T10:26:00;46.20;;;20.48;;
45254;SDS011;30989;52.078;21.014;2024-02-28T10:28:26;41.17;;;19.58;;
45254;SDS011;30989;52.078;21.014;2024-02-28T10:30:53;40.15;;;19.88;;
45254;SDS011;30989;52.078;21.014;2024-02-28T10:33:19;38.97;;;19.40;;
45254;SDS011;30989;52.078;21.014;2024-02-28T10:35:45;40.38;;;20.50;;
45254;SDS011;30989;52.078;21.014;2024-02-28T10:38:13;36.55;;;18.45;;
45254;SDS011;30989;52.078;21.014;2024-02-28T10:40:39;37.40;;;19.10;;
45254;SDS011;30989;52.078;21.014;2024-02-28T10:43:06;38.55;;;18.60;;
45254;SDS011;30989;52.078;21.014;2024-02-28T10:45:33;37.05;;;17.52;;
45254;SDS011;30989;52.078;21.014;2024-02-28T10:48:04;43.47;;;19.13;;
45254;SDS011;30989;52.078;21.014;2024-02-28T10:50:30;38.70;;;17.60;;
45254;SDS011;30989;52.078;21.014;2024-02-28T10:52:58;43.88;;;18.98;;
45254;SDS011;30989;52.078;21.014;2024-02-28T10:55:39;33.55;;;15.70;;
45254;SDS011;30989;52.078;21.014;2024-02-28T10:58:06;32.95;;;16.58;;
45254;SDS011;30989;52.078;21.014;2024-02-28T11:00:33;33.20;;;15.35;;
45254;SDS011;30989;52.078;21.014;2024-02-28T11:03:00;28.80;;;15.68;;
45254;SDS011;30989;52.078;21.014;2024-02-28T11:05:35;28.63;;;15.95;;
45254;SDS011;30989;52.078;21.014;2024-02-28T11:08:02;33.42;;;15.88;;
45254;SDS011;30989;52.078;21.014;2024-02-28T11:10:31;34.08;;;15.70;;
45254;SDS011;30989;52.078;21.014;2024-02-28T11:13:00;32.15;;;15.60;;
45254;SDS011;30989;52.078;21.014;2024-02-28T11:15:25;30.50;;;14.55;;
45254;SDS011;30989;52.078;21.014;2024-02-28T11:17:54;28.67;;;14.63;;
45254;SDS011;30989;52.078;21.014;2024-02-28T11:20:20;28.63;;;14.85;;
45254;SDS011;30989;52.078;21.014;2024-02-28T11:22:47;26.92;;;13.90;;
45254;SDS011;30989;52.078;21.014;2024-02-28T11:25:13;29.58;;;14.82;;
45254;SDS011;30989;52.078;21.014;2024-02-28T11:27:48;28.65;;;14.52;;
45254;SDS011;30989;52.078;21.014;2024-02-28T11:30:14;28.42;;;14.45;;
45254;SDS011;30989;52.078;21.014;2024-02-28T11:32:40;28.10;;;15.18;;
45254;SDS011;30989;52.078;21.014;2024-02-28T11:35:06;32.15;;;15.57;;
45254;SDS011;30989;52.078;21.014;2024-02-28T11:37:32;29.65;;;14.60;;
45254;SDS011;30989;52.078;21.014;2024-02-28T11:39:58;31.67;;;14.73;;
45254;SDS011;30989;52.078;21.014;2024-02-28T11:42:23;26.95;;;13.45;;
45254;SDS011;30989;52.078;21.014;2024-02-28T11:44:55;29.90;;;14.65;;
45254;SDS011;30989;52.078;21.014;2024-02-28T11:47:22;30.52;;;15.38;;
45254;SDS011;30989;52.078;21.014;2024-02-28T11:49:49;31.33;;;15.57;;
45254;SDS011;30989;52.078;21.014;2024-02-28T11:52:15;30.13;;;14.65;;
45254;SDS011;30989;52.078;21.014;2024-02-28T11:54:40;32.53;;;15.40;;
45254;SDS011;30989;52.078;21.014;2024-02-28T11:57:10;30.13;;;15.15;;
45254;SDS011;30989;52.078;21.014;2024-02-28T11:59:39;31.52;;;15.80;;
45254;SDS011;30989;52.078;21.014;2024-02-28T12:02:11;27.75;;;14.88;;
45254;SDS011;30989;52.078;21.014;2024-02-28T12:04:38;32.72;;;17.05;;
45254;SDS011;30989;52.078;21.014;2024-02-28T12:07:05;40.03;;;17.70;;
45254;SDS011;30989;52.078;21.014;2024-02-28T12:09:31;38.03;;;18.17;;
45254;SDS011;30989;52.078;21.014;2024-02-28T12:11:59;47.47;;;20.17;;
45254;SDS011;30989;52.078;21.014;2024-02-28T12:14:26;40.28;;;20.15;;
45254;SDS011;30989;52.078;21.014;2024-02-28T12:16:52;43.58;;;20.42;;
45254;SDS011;30989;52.078;21.014;2024-02-28T12:19:17;43.75;;;22.05;;
45254;SDS011;30989;52.078;21.014;2024-02-28T12:21:45;42.33;;;21.05;;
45254;SDS011;30989;52.078;21.014;2024-02-28T12:24:11;45.25;;;19.75;;
45254;SDS011;30989;52.078;21.014;2024-02-28T12:26:37;39.10;;;18.30;;
45254;SDS011;30989;52.078;21.014;2024-02-28T12:29:03;34.33;;;17.15;;
45254;SDS011;30989;52.078;21.014;2024-02-28T12:31:28;31.42;;;16.35;;
45254;SDS011;30989;52.078;21.014;2024-02-28T12:33:54;32.63;;;16.30;;
45254;SDS011;30989;52.078;21.014;2024-02-28T12:36:20;42.70;;;18.40;;
45254;SDS011;30989;52.078;21.014;2024-02-28T12:38:46;37.50;;;18.13;;
45254;SDS011;30989;52.078;21.014;2024-02-28T12:41:11;35.65;;;17.30;;
45254;SDS011;30989;52.078;21.014;2024-02-28T12:43:38;39.50;;;17.55;;
45254;SDS011;30989;52.078;21.014;2024-02-28T12:46:04;35.88;;;17.42;;
45254;SDS011;30989;52.078;21.014;2024-02-28T12:48:31;56.95;;;25.75;;
45254;SDS011;30989;52.078;21.014;2024-02-28T12:51:02;61.03;;;30.40;;
45254;SDS011;30989;52.078;21.014;2024-02-28T12:53:27;66.82;;;30.38;;
45254;SDS011;30989;52.078;21.014;2024-02-28T12:55:53;63.60;;;29.17;;
45254;SDS011;30989;52.078;21.014;2024-02-28T12:58:18;67.30;;;32.17;;
45254;SDS011;30989;52.078;21.014;2024-02-28T13:00:44;61.17;;;27.52;;
45254;SDS011;30989;52.078;21.014;2024-02-28T13:03:09;66.10;;;29.67;;
45254;SDS011;30989;52.078;21.014;2024-02-28T13:05:35;69.32;;;30.20;;
45254;SDS011;30989;52.078;21.014;2024-02-28T13:08:00;67.05;;;29.95;;
45254;SDS011;30989;52.078;21.014;2024-02-28T13:10:26;66.85;;;30.15;;
45254;SDS011;30989;52.078;21.014;2024-02-28T13:12:52;66.45;;;31.65;;
45254;SDS011;30989;52.078;21.014;2024-02-28T13:15:18;62.35;;;28.40;;
45254;SDS011;30989;52.078;21.014;2024-02-28T13:17:43;65.85;;;29.27;;
45254;SDS011;30989;52.078;21.014;2024-02-28T13:20:09;64.90;;;30.02;;
45254;SDS011;30989;52.078;21.014;2024-02-28T13:22:34;72.40;;;28.50;;
45254;SDS011;30989;52.078;21.014;2024-02-28T13:25:01;63.97;;;29.85;;
45254;SDS011;30989;52.078;21.014;2024-02-28T13:27:26;64.90;;;27.92;;
45254;SDS011;30989;52.078;21.014;2024-02-28T13:29:52;64.03;;;30.90;;
45254;SDS011;30989;52.078;21.014;2024-02-28T13:32:17;63.80;;;28.77;;
45254;SDS011;30989;52.078;21.014;2024-02-28T13:34:43;70.30;;;30.48;;
45254;SDS011;30989;52.078;21.014;2024-02-28T13:37:08;68.95;;;28.63;;
45254;SDS011;30989;52.078;21.014;2024-02-28T13:39:34;71.30;;;29.27;;
45254;SDS011;30989;52.078;21.014;2024-02-28T13:42:00;61.67;;;26.90;;
45254;SDS011;30989;52.078;21.014;2024-02-28T13:44:25;65.93;;;28.33;;
45254;SDS011;30989;52.078;21.014;2024-02-28T13:46:52;56.38;;;23.77;;
45254;SDS011;30989;52.078;21.014;2024-02-28T13:49:18;50.08;;;21.92;;
45254;SDS011;30989;52.078;21.014;2024-02-28T13:51:44;58.13;;;23.02;;
45254;SDS011;30989;52.078;21.014;2024-02-28T13:54:10;51.28;;;22.52;;
45254;SDS011;30989;52.078;21.014;2024-02-28T13:56:35;56.08;;;25.10;;
45254;SDS011;30989;52.078;21.014;2024-02-28T13:59:01;60.63;;;23.52;;
45254;SDS011;30989;52.078;21.014;2024-02-28T14:01:27;60.25;;;24.05;;